| time (UTC) | temp C | wind direction | speed KPH | gust KPH | rain 1hr cm | rain 24hr cm | rain mn cm | humidity % | barometer mb |
| 20260502152051 | 26 | 77 | 9.7 | 20.9 | 0.00 | 0.00 | 0.00 | 34 | 41.0 |
| 20260502151621 | 26 | 65 | 8.0 | 12.9 | 0.00 | 0.00 | 0.00 | 34 | 41.0 |
| 20260502151121 | 26 | 106 | 3.2 | 17.7 | 0.00 | 0.00 | 0.00 | 35 | 41.0 |
| 20260502150551 | 25 | 115 | 1.6 | 17.7 | 0.00 | 0.00 | 0.00 | 36 | 41.0 |
| 20260502150120 | 25 | 78 | 9.7 | 17.7 | 0.00 | 0.00 | 0.00 | 36 | 41.0 |
| 20260502140119 | 19 | 277 | 0.0 | 0.0 | 0.00 | 0.00 | 0.00 | 43 | 41.0 |
| 20260502130617 | 14 | 277 | 0.0 | 0.0 | 0.00 | 0.00 | 0.00 | 49 | 41.0 |
| 20260502130117 | 14 | 277 | 0.0 | 3.2 | 0.00 | 0.00 | 0.00 | 54 | 41.0 |
| 20260502123618 | 14 | 274 | 0.0 | 0.0 | 0.00 | 0.00 | 0.00 | 49 | 41.0 |
| 20260502123116 | 14 | 274 | 0.0 | 0.0 | 0.00 | 0.00 | 0.00 | 48 | 41.0 |
| 20260502122616 | 14 | 274 | 0.0 | 0.0 | 0.00 | 0.00 | 0.00 | 49 | 41.0 |
| 20260502122117 | 14 | 274 | 0.0 | 0.0 | 0.00 | 0.00 | 0.00 | 46 | 41.0 |
| 20260502121616 | 15 | 274 | 0.0 | 0.0 | 0.00 | 0.00 | 0.00 | 47 | 41.0 |
| 20260502121117 | 15 | 274 | 0.0 | 0.0 | 0.00 | 0.00 | 0.00 | 45 | 41.0 |
| 20260502120616 | 15 | 274 | 0.0 | 0.0 | 0.00 | 0.00 | 0.00 | 46 | 41.0 |
| 20260502120115 | 15 | 274 | 0.0 | 0.0 | 0.00 | 0.00 | 0.00 | 45 | 41.0 |
| 20260502115616 | 15 | 274 | 0.0 | 0.0 | 0.00 | 0.00 | 0.00 | 45 | 41.0 |
| 20260502115115 | 15 | 274 | 0.0 | 0.0 | 0.00 | 0.00 | 0.00 | 45 | 41.0 |
| 20260502114615 | 16 | 274 | 0.0 | 1.6 | 0.00 | 0.00 | 0.00 | 40 | 41.0 |
| 20260502114114 | 16 | 274 | 0.0 | 1.6 | 0.00 | 0.00 | 0.00 | 43 | 41.0 |
| 20260502113614 | 15 | 207 | 0.0 | 0.0 | 0.00 | 0.00 | 0.00 | 41 | 41.0 |
| 20260502113114 | 15 | 205 | 0.0 | 0.0 | 0.00 | 0.00 | 0.00 | 41 | 41.0 |
| 20260502112614 | 15 | 205 | 0.0 | 0.0 | 0.00 | 0.00 | 0.00 | 43 | 41.0 |
| 20260502112114 | 15 | 205 | 0.0 | 1.6 | 0.00 | 0.00 | 0.00 | 45 | 41.0 |
| 20260502111614 | 15 | 247 | 0.0 | 1.6 | 0.00 | 0.00 | 0.00 | 48 | 41.0 |
| 20260502111115 | 15 | 247 | 0.0 | 0.0 | 0.00 | 0.00 | 0.00 | 41 | 41.0 |
| 20260502110614 | 15 | 247 | 0.0 | 0.0 | 0.00 | 0.00 | 0.00 | 42 | 41.0 |
| 20260502110113 | 15 | 247 | 0.0 | 0.0 | 0.00 | 0.00 | 0.00 | 42 | 41.0 |
| 20260502105614 | 16 | 246 | 0.0 | 0.0 | 0.00 | 0.00 | 0.00 | 42 | 41.0 |
| 20260502105114 | 16 | 303 | 0.0 | 1.6 | 0.00 | 0.00 | 0.00 | 41 | 41.0 |
| 20260502104613 | 16 | 302 | 0.0 | 1.6 | 0.00 | 0.00 | 0.00 | 39 | 41.0 |
| 20260502104113 | 16 | 307 | 0.0 | 1.6 | 0.00 | 0.00 | 0.00 | 38 | 41.0 |
| 20260502103612 | 16 | 239 | 0.0 | 0.0 | 0.00 | 0.00 | 0.00 | 39 | 41.0 |
| 20260502103112 | 16 | 238 | 0.0 | 0.0 | 0.00 | 0.00 | 0.00 | 38 | 40.9 |
| 20260502102612 | 16 | 238 | 0.0 | 1.6 | 0.00 | 0.00 | 0.00 | 39 | 41.0 |
| 20260502102112 | 16 | 239 | 0.0 | 1.6 | 0.00 | 0.00 | 0.00 | 37 | 41.0 |
| 20260502101612 | 17 | 238 | 0.0 | 0.0 | 0.00 | 0.00 | 0.00 | 37 | 40.9 |
| 20260502101112 | 17 | 238 | 0.0 | 1.6 | 0.00 | 0.00 | 0.00 | 34 | 40.9 |
| 20260502100612 | 17 | 238 | 0.0 | 1.6 | 0.00 | 0.00 | 0.00 | 35 | 40.9 |
| 20260502100111 | 17 | 228 | 0.0 | 0.0 | 0.00 | 0.00 | 0.00 | 34 | 40.9 |
| 20260502091110 | 18 | 326 | 0.0 | 4.8 | 0.00 | 0.00 | 0.00 | 32 | 40.9 |
| 20260502090611 | 18 | 46 | 0.0 | 6.4 | 0.00 | 0.00 | 0.00 | 33 | 40.9 |
| 20260502090110 | 18 | 79 | 0.0 | 6.4 | 0.00 | 0.00 | 0.00 | 33 | 40.9 |
| 20260502080108 | 18 | 124 | 0.0 | 1.6 | 0.00 | 0.00 | 0.00 | 38 | 40.9 |
| 20260502071106 | 20 | 124 | 0.0 | 0.0 | 0.00 | 0.00 | 0.00 | 29 | 40.9 |
| 20260502070606 | 20 | 124 | 0.0 | 1.6 | 0.00 | 0.00 | 0.00 | 28 | 40.9 |
| 20260502070106 | 20 | 124 | 0.0 | 1.6 | 0.00 | 0.00 | 0.00 | 29 | 40.9 |
| 20260502065606 | 20 | 174 | 0.0 | 0.0 | 0.00 | 0.00 | 0.00 | 28 | 40.9 |
| 20260502065106 | 20 | 174 | 0.0 | 0.0 | 0.00 | 0.00 | 0.00 | 29 | 40.9 |
| 20260502064607 | 20 | 174 | 0.0 | 0.0 | 0.00 | 0.00 | 0.00 | 29 | 40.9 |
| 20260502064106 | 20 | 174 | 0.0 | 0.0 | 0.00 | 0.00 | 0.00 | 30 | 40.9 |
| 20260502063607 | 20 | 174 | 0.0 | 0.0 | 0.00 | 0.00 | 0.00 | 29 | 40.9 |
| 20260502063105 | 20 | 174 | 0.0 | 0.0 | 0.00 | 0.00 | 0.00 | 32 | 40.9 |
| 20260502062605 | 21 | 174 | 0.0 | 0.0 | 0.00 | 0.00 | 0.00 | 31 | 40.9 |
| 20260502062105 | 21 | 174 | 0.0 | 0.0 | 0.00 | 0.00 | 0.00 | 30 | 40.9 |
| 20260502061605 | 21 | 174 | 0.0 | 0.0 | 0.00 | 0.00 | 0.00 | 29 | 40.9 |
| 20260502061105 | 21 | 174 | 0.0 | 1.6 | 0.00 | 0.00 | 0.00 | 31 | 40.9 |
| 20260502060605 | 21 | 181 | 0.0 | 1.6 | 0.00 | 0.00 | 0.00 | 30 | 40.9 |
| 20260502060104 | 21 | 209 | 0.0 | 1.6 | 0.00 | 0.00 | 0.00 | 31 | 40.9 |
| 20260502055605 | 21 | 225 | 0.0 | 1.6 | 0.00 | 0.00 | 0.00 | 32 | 40.9 |
| 20260502055104 | 21 | 240 | 0.0 | 1.6 | 0.00 | 0.00 | 0.00 | 31 | 40.9 |
| 20260502054604 | 21 | 178 | 0.0 | 3.2 | 0.00 | 0.00 | 0.00 | 30 | 40.9 |
| 20260502054105 | 21 | 178 | 0.0 | 3.2 | 0.00 | 0.00 | 0.00 | 31 | 40.9 |
| 20260502053604 | 21 | 152 | 0.0 | 3.2 | 0.00 | 0.00 | 0.00 | 30 | 40.9 |
| 20260502053104 | 21 | 172 | 0.0 | 1.6 | 0.00 | 0.00 | 0.00 | 30 | 40.9 |
| 20260502052605 | 21 | 178 | 0.0 | 0.0 | 0.00 | 0.00 | 0.00 | 33 | 40.9 |
| 20260502052103 | 21 | 172 | 0.0 | 0.0 | 0.00 | 0.00 | 0.00 | 33 | 40.9 |
| 20260502051604 | 21 | 172 | 0.0 | 0.0 | 0.00 | 0.00 | 0.00 | 31 | 40.9 |
| 20260502051103 | 21 | 172 | 0.0 | 0.0 | 0.00 | 0.00 | 0.00 | 31 | 40.9 |
| 20260502050603 | 21 | 196 | 0.0 | 0.0 | 0.00 | 0.00 | 0.00 | 34 | 40.9 |
| 20260502045602 | 21 | 196 | 0.0 | 0.0 | 0.00 | 0.00 | 0.00 | 30 | 40.9 |
| 20260502045102 | 21 | 196 | 0.0 | 0.0 | 0.00 | 0.00 | 0.00 | 34 | 40.9 |
| 20260502044602 | 22 | 196 | 0.0 | 0.0 | 0.00 | 0.00 | 0.00 | 35 | 40.9 |
| 20260502044104 | 22 | 196 | 0.0 | 0.0 | 0.00 | 0.00 | 0.00 | 32 | 40.9 |
| 20260502043602 | 22 | 196 | 0.0 | 0.0 | 0.00 | 0.00 | 0.00 | 28 | 40.9 |
| 20260502043101 | 22 | 196 | 0.0 | 0.0 | 0.00 | 0.00 | 0.00 | 28 | 40.9 |
| 20260502042602 | 22 | 196 | 0.0 | 0.0 | 0.00 | 0.00 | 0.00 | 29 | 40.9 |
| 20260502042101 | 22 | 196 | 0.0 | 0.0 | 0.00 | 0.00 | 0.00 | 35 | 40.9 |
| 20260502041603 | 22 | 210 | 0.0 | 0.0 | 0.00 | 0.00 | 0.00 | 31 | 40.9 |
| 20260502041102 | 22 | 279 | 0.0 | 0.0 | 0.00 | 0.00 | 0.00 | 29 | 40.9 |
| 20260502040601 | 22 | 279 | 0.0 | 0.0 | 0.00 | 0.00 | 0.00 | 26 | 40.9 |
| 20260502040101 | 22 | 279 | 0.0 | 0.0 | 0.00 | 0.00 | 0.00 | 24 | 40.9 |
| 20260502035601 | 23 | 279 | 0.0 | 0.0 | 0.00 | 0.00 | 0.00 | 24 | 40.9 |
| 20260502035101 | 23 | 279 | 0.0 | 0.0 | 0.00 | 0.00 | 0.00 | 24 | 40.9 |
| 20260502034600 | 23 | 279 | 0.0 | 0.0 | 0.00 | 0.00 | 0.00 | 24 | 40.9 |
| 20260502034100 | 23 | 279 | 0.0 | 0.0 | 0.00 | 0.00 | 0.00 | 23 | 40.9 |
| 20260502033600 | 24 | 279 | 0.0 | 0.0 | 0.00 | 0.00 | 0.00 | 24 | 40.9 |
| 20260502033101 | 24 | 279 | 0.0 | 0.0 | 0.00 | 0.00 | 0.00 | 23 | 40.9 |
| 20260502032600 | 25 | 279 | 0.0 | 0.0 | 0.00 | 0.00 | 0.00 | 23 | 40.9 |
| 20260502032059 | 25 | 279 | 0.0 | 0.0 | 0.00 | 0.00 | 0.00 | 22 | 40.9 |
| 20260502031600 | 25 | 279 | 0.0 | 0.0 | 0.00 | 0.00 | 0.00 | 21 | 40.9 |
| 20260502031059 | 25 | 279 | 0.0 | 0.0 | 0.00 | 0.00 | 0.00 | 20 | 40.8 |
| 20260502030600 | 26 | 279 | 0.0 | 0.0 | 0.00 | 0.00 | 0.00 | 19 | 40.8 |
| 20260502030100 | 26 | 279 | 0.0 | 0.0 | 0.00 | 0.00 | 0.00 | 19 | 40.8 |
| 20260502025559 | 27 | 279 | 0.0 | 0.0 | 0.00 | 0.00 | 0.00 | 18 | 40.8 |
| 20260502025059 | 27 | 279 | 0.0 | 1.6 | 0.00 | 0.00 | 0.00 | 18 | 40.8 |
| 20260502024558 | 27 | 278 | 0.0 | 1.6 | 0.00 | 0.00 | 0.00 | 18 | 40.8 |
| 20260502024059 | 28 | 278 | 0.0 | 1.6 | 0.00 | 0.00 | 0.00 | 17 | 40.8 |
| 20260502023558 | 28 | 278 | 0.0 | 1.6 | 0.00 | 0.00 | 0.00 | 16 | 40.8 |
| 20260502023059 | 28 | 273 | 0.0 | 1.6 | 0.00 | 0.00 | 0.00 | 15 | 40.8 |
| 20260502022558 | 29 | 281 | 0.0 | 3.2 | 0.00 | 0.00 | 0.00 | 15 | 40.8 |
| 20260502022059 | 29 | 281 | 0.0 | 8.0 | 0.00 | 0.00 | 0.00 | 15 | 40.8 |
| 20260502021558 | 30 | 280 | 0.0 | 8.0 | 0.00 | 0.00 | 0.00 | 14 | 40.8 |
| 20260502021057 | 30 | 257 | 3.2 | 8.0 | 0.00 | 0.00 | 0.00 | 14 | 40.8 |
| 20260502020558 | 30 | 295 | 0.0 | 8.0 | 0.00 | 0.00 | 0.00 | 14 | 40.8 |
| 20260502020059 | 30 | 276 | 1.6 | 4.8 | 0.00 | 0.00 | 0.00 | 15 | 40.8 |
| 20260502015557 | 30 | 302 | 0.0 | 4.8 | 0.00 | 0.00 | 0.00 | 15 | 40.8 |
| 20260502015057 | 30 | 285 | 1.6 | 6.4 | 0.00 | 0.00 | 0.00 | 16 | 40.8 |
| 20260502014557 | 31 | 277 | 0.0 | 6.4 | 0.00 | 0.00 | 0.00 | 15 | 40.8 |
| 20260502014058 | 31 | 316 | 1.6 | 6.4 | 0.00 | 0.00 | 0.00 | 14 | 40.8 |
| 20260502013556 | 31 | 276 | 0.0 | 8.0 | 0.00 | 0.00 | 0.00 | 15 | 40.8 |
| 20260502013056 | 31 | 242 | 0.0 | 8.0 | 0.00 | 0.00 | 0.00 | 15 | 40.8 |
| 20260502012558 | 31 | 282 | 6.4 | 8.0 | 0.00 | 0.00 | 0.00 | 15 | 40.8 |
| 20260502012056 | 31 | 288 | 3.2 | 9.7 | 0.00 | 0.00 | 0.00 | 16 | 40.8 |
| 20260502011556 | 31 | 286 | 4.8 | 9.7 | 0.00 | 0.00 | 0.00 | 16 | 40.8 |
| 20260502011057 | 31 | 248 | 3.2 | 12.9 | 0.00 | 0.00 | 0.00 | 16 | 40.8 |
| 20260502010556 | 31 | 343 | 8.0 | 12.9 | 0.00 | 0.00 | 0.00 | 16 | 40.8 |
| 20260502010126 | 31 | 268 | 4.8 | 11.3 | 0.00 | 0.00 | 0.00 | 17 | 40.8 |
| 20260502005555 | 31 | 273 | 0.0 | 16.1 | 0.00 | 0.00 | 0.00 | 16 | 40.8 |
| 20260502005055 | 31 | 266 | 3.2 | 16.1 | 0.00 | 0.00 | 0.00 | 16 | 40.8 |
| 20260502004555 | 32 | 255 | 8.0 | 11.3 | 0.00 | 0.00 | 0.00 | 16 | 40.8 |
| 20260502004055 | 32 | 232 | 0.0 | 14.5 | 0.00 | 0.00 | 0.00 | 16 | 40.8 |
| 20260502003555 | 31 | 304 | 1.6 | 14.5 | 0.00 | 0.00 | 0.00 | 16 | 40.8 |
| 20260502003056 | 32 | 283 | 6.4 | 11.3 | 0.00 | 0.00 | 0.00 | 17 | 40.8 |
| 20260502002554 | 32 | 270 | 1.6 | 8.0 | 0.00 | 0.00 | 0.00 | 17 | 40.8 |
| 20260502002054 | 32 | 245 | 1.6 | 9.7 | 0.00 | 0.00 | 0.00 | 18 | 40.8 |
| 20260502001554 | 31 | 276 | 0.0 | 11.3 | 0.00 | 0.00 | 0.00 | 21 | 40.8 |
| 20260502001054 | 31 | 286 | 4.8 | 11.3 | 0.00 | 0.00 | 0.00 | 18 | 40.8 |
| 20260502000554 | 31 | 256 | 6.4 | 11.3 | 0.00 | 0.00 | 0.00 | 18 | 40.8 |
| 20260502000125 | 31 | 217 | 1.6 | 11.3 | 0.00 | 0.00 | 0.00 | 17 | 40.8 |
| 20260501235553 | 31 | 206 | 0.0 | 6.4 | 0.00 | 0.00 | 0.00 | 19 | 40.8 |
| 20260501235054 | 31 | 299 | 3.2 | 12.9 | 0.00 | 0.00 | 0.00 | 17 | 40.8 |
| 20260501234623 | 31 | 254 | 4.8 | 16.1 | 0.00 | 0.00 | 0.00 | 17 | 40.8 |
| 20260501234053 | 31 | 285 | 12.9 | 16.1 | 0.00 | 0.00 | 0.00 | 16 | 40.8 |
| 20260501233553 | 32 | 246 | 3.2 | 12.9 | 0.00 | 0.00 | 0.00 | 18 | 40.8 |
| 20260501233054 | 31 | 11 | 6.4 | 12.9 | 0.00 | 0.00 | 0.00 | 17 | 40.8 |
| 20260501232623 | 32 | 271 | 0.0 | 14.5 | 0.00 | 0.00 | 0.00 | 20 | 40.8 |
| 20260501232052 | 31 | 270 | 0.0 | 14.5 | 0.00 | 0.00 | 0.00 | 18 | 40.8 |
| 20260501231553 | 31 | 300 | 4.8 | 12.9 | 0.00 | 0.00 | 0.00 | 17 | 40.8 |
| 20260501231122 | 31 | 285 | 3.2 | 16.1 | 0.00 | 0.00 | 0.00 | 18 | 40.8 |
| 20260501230553 | 31 | 268 | 9.7 | 16.1 | 0.00 | 0.00 | 0.00 | 18 | 40.8 |
| 20260501230122 | 31 | 257 | 1.6 | 9.7 | 0.00 | 0.00 | 0.00 | 19 | 40.8 |
| 20260501225554 | 31 | 262 | 6.4 | 11.3 | 0.00 | 0.00 | 0.00 | 19 | 40.8 |
| 20260501225121 | 31 | 254 | 4.8 | 11.3 | 0.00 | 0.00 | 0.00 | 20 | 40.8 |
| 20260501224553 | 31 | 259 | 1.6 | 11.3 | 0.00 | 0.00 | 0.00 | 19 | 40.8 |
| 20260501224052 | 31 | 339 | 4.8 | 14.5 | 0.00 | 0.00 | 0.00 | 18 | 40.8 |
| 20260501223552 | 31 | 272 | 3.2 | 14.5 | 0.00 | 0.00 | 0.00 | 21 | 40.8 |
| 20260501223121 | 31 | 221 | 1.6 | 9.7 | 0.00 | 0.00 | 0.00 | 21 | 40.8 |
| 20260501222551 | 31 | 265 | 6.4 | 9.7 | 0.00 | 0.00 | 0.00 | 18 | 40.8 |
| 20260501222051 | 31 | 278 | 4.8 | 14.5 | 0.00 | 0.00 | 0.00 | 20 | 40.8 |
| 20260501221621 | 31 | 247 | 3.2 | 14.5 | 0.00 | 0.00 | 0.00 | 18 | 40.8 |
| 20260501221120 | 31 | 267 | 0.0 | 11.3 | 0.00 | 0.00 | 0.00 | 19 | 40.9 |
| 20260501220620 | 31 | 266 | 6.4 | 11.3 | 0.00 | 0.00 | 0.00 | 19 | 40.9 |
| 20260501220120 | 31 | 293 | 1.6 | 8.0 | 0.00 | 0.00 | 0.00 | 18 | 40.8 |
| 20260501215620 | 31 | 217 | 3.2 | 12.9 | 0.00 | 0.00 | 0.00 | 19 | 40.9 |
| 20260501215120 | 31 | 252 | 1.6 | 12.9 | 0.00 | 0.00 | 0.00 | 17 | 40.9 |
| 20260501214622 | 31 | 288 | 8.0 | 12.9 | 0.00 | 0.00 | 0.00 | 18 | 40.9 |
| 20260501214120 | 31 | 250 | 3.2 | 14.5 | 0.00 | 0.00 | 0.00 | 18 | 40.9 |
| 20260501213619 | 31 | 260 | 4.8 | 16.1 | 0.00 | 0.00 | 0.00 | 19 | 40.9 |
| 20260501213120 | 31 | 14 | 1.6 | 19.3 | 0.00 | 0.00 | 0.00 | 18 | 40.9 |
| 20260501212619 | 31 | 288 | 1.6 | 19.3 | 0.00 | 0.00 | 0.00 | 19 | 40.9 |
| 20260501212119 | 31 | 252 | 0.0 | 14.5 | 0.00 | 0.00 | 0.00 | 21 | 40.9 |
| 20260501211619 | 31 | 50 | 1.6 | 14.5 | 0.00 | 0.00 | 0.00 | 19 | 40.9 |
| 20260501211119 | 31 | 297 | 6.4 | 11.3 | 0.00 | 0.00 | 0.00 | 20 | 40.9 |
| 20260501210620 | 31 | 245 | 3.2 | 14.5 | 0.00 | 0.00 | 0.00 | 19 | 40.9 |
| 20260501210118 | 31 | 250 | 3.2 | 14.5 | 0.00 | 0.00 | 0.00 | 21 | 40.9 |
| 20260501205618 | 31 | 309 | 3.2 | 6.4 | 0.00 | 0.00 | 0.00 | 19 | 40.9 |
| 20260501205118 | 30 | 166 | 3.2 | 9.7 | 0.00 | 0.00 | 0.00 | 23 | 40.9 |
| 20260501204618 | 30 | 228 | 1.6 | 9.7 | 0.00 | 0.00 | 0.00 | 22 | 40.9 |
| 20260501204118 | 30 | 318 | 3.2 | 11.3 | 0.00 | 0.00 | 0.00 | 20 | 40.9 |
| 20260501203617 | 30 | 245 | 0.0 | 11.3 | 0.00 | 0.00 | 0.00 | 21 | 40.9 |
| 20260501203118 | 30 | 259 | 3.2 | 11.3 | 0.00 | 0.00 | 0.00 | 24 | 40.9 |
| 20260501202618 | 30 | 262 | 8.0 | 11.3 | 0.00 | 0.00 | 0.00 | 23 | 40.9 |
| 20260501202117 | 30 | 272 | 3.2 | 6.4 | 0.00 | 0.00 | 0.00 | 24 | 40.9 |
| 20260501201617 | 30 | 169 | 3.2 | 8.0 | 0.00 | 0.00 | 0.00 | 25 | 40.9 |
| 20260501201117 | 30 | 233 | 3.2 | 8.0 | 0.00 | 0.00 | 0.00 | 24 | 40.9 |
| 20260501200616 | 30 | 251 | 3.2 | 9.7 | 0.00 | 0.00 | 0.00 | 23 | 40.9 |
| 20260501200116 | 29 | 259 | 1.6 | 11.3 | 0.00 | 0.00 | 0.00 | 24 | 40.9 |
| 20260501195617 | 30 | 264 | 3.2 | 11.3 | 0.00 | 0.00 | 0.00 | 23 | 40.9 |
| 20260501195117 | 29 | 251 | 6.4 | 11.3 | 0.00 | 0.00 | 0.00 | 24 | 40.9 |
| 20260501194616 | 29 | 293 | 3.2 | 9.7 | 0.00 | 0.00 | 0.00 | 25 | 40.9 |
| 20260501194116 | 29 | 261 | 1.6 | 9.7 | 0.00 | 0.00 | 0.00 | 27 | 40.9 |
| 20260501193616 | 29 | 173 | 8.0 | 9.7 | 0.00 | 0.00 | 0.00 | 28 | 40.9 |
| 20260501193115 | 28 | 295 | 1.6 | 6.4 | 0.00 | 0.00 | 0.00 | 26 | 40.9 |
| 20260501192615 | 28 | 226 | 4.8 | 6.4 | 0.00 | 0.00 | 0.00 | 30 | 40.9 |
| 20260501192116 | 28 | 133 | 1.6 | 8.0 | 0.00 | 0.00 | 0.00 | 26 | 40.9 |
| 20260501191615 | 28 | 249 | 3.2 | 8.0 | 0.00 | 0.00 | 0.00 | 26 | 40.9 |
| 20260501191115 | 28 | 107 | 0.0 | 8.0 | 0.00 | 0.00 | 0.00 | 25 | 40.9 |
| 20260501190615 | 28 | 287 | 6.4 | 8.0 | 0.00 | 0.00 | 0.00 | 24 | 40.9 |
| 20260501190115 | 28 | 224 | 1.6 | 8.0 | 0.00 | 0.00 | 0.00 | 24 | 40.9 |
| 20260501185615 | 28 | 217 | 1.6 | 8.0 | 0.00 | 0.00 | 0.00 | 27 | 40.9 |
| 20260501185114 | 28 | 169 | 3.2 | 4.8 | 0.00 | 0.00 | 0.00 | 23 | 41.0 |
| 20260501184614 | 28 | 162 | 0.0 | 6.4 | 0.00 | 0.00 | 0.00 | 26 | 41.0 |
| 20260501184114 | 28 | 239 | 3.2 | 14.5 | 0.00 | 0.00 | 0.00 | 25 | 41.0 |
| 20260501183614 | 28 | 255 | 3.2 | 14.5 | 0.00 | 0.00 | 0.00 | 24 | 41.0 |
| 20260501183115 | 27 | 18 | 3.2 | 6.4 | 0.00 | 0.00 | 0.00 | 25 | 41.0 |
| 20260501182614 | 27 | 42 | 3.2 | 9.7 | 0.00 | 0.00 | 0.00 | 26 | 41.0 |
| 20260501182113 | 27 | 271 | 4.8 | 9.7 | 0.00 | 0.00 | 0.00 | 26 | 41.0 |
| 20260501181614 | 27 | 247 | 1.6 | 9.7 | 0.00 | 0.00 | 0.00 | 26 | 41.0 |
| 20260501181113 | 27 | 305 | 4.8 | 9.7 | 0.00 | 0.00 | 0.00 | 27 | 41.0 |
| 20260501180614 | 27 | 58 | 0.0 | 9.7 | 0.00 | 0.00 | 0.00 | 29 | 41.0 |
| 20260501180114 | 27 | 335 | 1.6 | 8.0 | 0.00 | 0.00 | 0.00 | 27 | 41.0 |
| 20260501175613 | 27 | 244 | 4.8 | 8.0 | 0.00 | 0.00 | 0.00 | 27 | 41.0 |
| 20260501175114 | 27 | 358 | 6.4 | 8.0 | 0.00 | 0.00 | 0.00 | 28 | 41.0 |
| 20260501174612 | 27 | 274 | 3.2 | 11.3 | 0.00 | 0.00 | 0.00 | 27 | 41.0 |
| 20260501174128 | 26 | 255 | 3.2 | 11.3 | 0.00 | 0.00 | 0.00 | 29 | 41.0 |
| 20260501173613 | 27 | 242 | 3.2 | 6.4 | 0.00 | 0.00 | 0.00 | 30 | 41.0 |
| 20260501173112 | 26 | 122 | 0.0 | 9.7 | 0.00 | 0.00 | 0.00 | 30 | 41.0 |
| 20260501172613 | 26 | 110 | 3.2 | 11.3 | 0.00 | 0.00 | 0.00 | 30 | 41.0 |
| 20260501172112 | 26 | 282 | 6.4 | 11.3 | 0.00 | 0.00 | 0.00 | 30 | 41.0 |
| 20260501171611 | 26 | 158 | 0.0 | 4.8 | 0.00 | 0.00 | 0.00 | 34 | 41.0 |
| 20260501171111 | 26 | 288 | 0.0 | 6.4 | 0.00 | 0.00 | 0.00 | 32 | 41.0 |
| 20260501170611 | 26 | 266 | 1.6 | 6.4 | 0.00 | 0.00 | 0.00 | 31 | 41.0 |
| 20260501170111 | 26 | 218 | 1.6 | 6.4 | 0.00 | 0.00 | 0.00 | 30 | 41.0 |
| 20260501165611 | 26 | 94 | 0.0 | 4.8 | 0.00 | 0.00 | 0.00 | 30 | 41.0 |
| 20260501165111 | 26 | 63 | 1.6 | 4.8 | 0.00 | 0.00 | 0.00 | 31 | 41.0 |
| 20260501164610 | 26 | 13 | 1.6 | 8.0 | 0.00 | 0.00 | 0.00 | 32 | 41.0 |
| 20260501164110 | 26 | 282 | 3.2 | 8.0 | 0.00 | 0.00 | 0.00 | 32 | 41.0 |
| 20260501163612 | 26 | 9 | 4.8 | 6.4 | 0.00 | 0.00 | 0.00 | 32 | 41.0 |
| 20260501163110 | 25 | 264 | 1.6 | 6.4 | 0.00 | 0.00 | 0.00 | 31 | 41.0 |
| 20260501162610 | 25 | 267 | 0.0 | 8.0 | 0.00 | 0.00 | 0.00 | 33 | 41.0 |
| 20260501162111 | 25 | 288 | 4.8 | 8.0 | 0.00 | 0.00 | 0.00 | 32 | 41.0 |
| 20260501161610 | 25 | 288 | 1.6 | 6.4 | 0.00 | 0.00 | 0.00 | 33 | 41.0 |
| 20260501161110 | 25 | 269 | 6.4 | 6.4 | 0.00 | 0.00 | 0.00 | 33 | 41.0 |
| 20260501160609 | 25 | 276 | 0.0 | 4.8 | 0.00 | 0.00 | 0.00 | 32 | 41.0 |
| 20260501160125 | 25 | 157 | 0.0 | 1.6 | 0.00 | 0.00 | 0.00 | 35 | 41.0 |
| 20260501155610 | 24 | 108 | 1.6 | 4.8 | 0.00 | 0.00 | 0.00 | 35 | 41.0 |
| 20260501155111 | 24 | 244 | 0.0 | 4.8 | 0.00 | 0.00 | 0.00 | 36 | 41.0 |
| 20260501154609 | 24 | 49 | 1.6 | 1.6 | 0.00 | 0.00 | 0.00 | 35 | 41.0 |
| 20260501154109 | 24 | 266 | 0.0 | 1.6 | 0.00 | 0.00 | 0.00 | 36 | 41.0 |
| 20260501153609 | 24 | 266 | 0.0 | 1.6 | 0.00 | 0.00 | 0.00 | 36 | 41.0 |
| 20260501153108 | 24 | 132 | 0.0 | 1.6 | 0.00 | 0.00 | 0.00 | 37 | 41.0 |
| 20260501152609 | 23 | 231 | 0.0 | 1.6 | 0.00 | 0.00 | 0.00 | 38 | 41.0 |